Time;durP1;ratioP1;P1;durP2;ratioP2;P2;SDS_P1;SDS_P2;PMS_P1;PMS_P2;Temp;Humidity;BMP_temperature;BMP_pressure;BME280_temperature;BME280_humidity;BME280_pressure;Samples;Min_cycle;Max_cycle;Signal;HPM_P1;HPM_P2
2023/10/10 00:00:23;;;;;;;;;;;;;;;14.91;100.00;101996.50;4934592;28;19930;-93
2023/10/10 00:03:09;;;;;;;;;;;;;;;14.89;100.00;101999.25;4944514;28;19931;-91
2023/10/10 00:05:57;;;;;;;;;;;;;;;14.90;100.00;102002.75;4933784;28;20032;-91
2023/10/10 00:08:44;;;;;;;;;;;;;;;14.90;100.00;102006.31;4933645;28;20338;-91
2023/10/10 00:11:31;;;;;;;;;;;;;;;14.89;100.00;102007.25;4935354;28;20289;-91
2023/10/10 00:14:22;;;;;;;;;;;;;;;14.89;100.00;102001.91;4941339;28;19930;-89
2023/10/10 00:17:09;;;;;;;;;;;;;;;14.89;100.00;102001.03;4943617;28;21007;-90
2023/10/10 00:20:16;;;;;;;;;;;;;;;14.88;100.00;101994.81;4943619;28;19930;-90
2023/10/10 00:23:04;;;;;;;;;;;;;;;14.88;100.00;101993.97;4945161;28;19930;-88
2023/10/10 00:25:53;;;;;;;;;;;;;;;14.85;100.00;101994.09;4946434;28;19937;-92
2023/10/10 00:28:41;;;;;;;;;;;;;;;14.87;100.00;101989.59;4942278;28;19934;-90
2023/10/10 00:31:31;;;;;;;;;;;;;;;14.87;100.00;101989.59;4944694;28;19922;-94
2023/10/10 00:34:16;;;;;;;;;;;;;;;14.85;100.00;101984.31;4944433;28;19977;-91
2023/10/10 00:37:08;;;;;;;;;;;;;;;14.82;100.00;101984.44;4942281;28;19930;-91
2023/10/10 00:39:53;;;;;;;;;;;;;;;14.80;100.00;101978.31;4933301;28;19926;-93
2023/10/10 00:42:42;;;;;;;;;;;;;;;14.77;100.00;101966.00;4927688;28;19926;-91
2023/10/10 00:45:32;;;;;;;;;;;;;;;14.76;100.00;101961.59;4941120;28;19938;-92
2023/10/10 00:48:21;;;;;;;;;;;;;;;14.72;100.00;101967.13;4933779;28;19965;-90
2023/10/10 00:51:08;;;;;;;;;;;;;;;14.66;100.00;101963.78;4925918;28;19934;-90
2023/10/10 00:54:12;;;;;;;;;;;;;;;14.62;100.00;101959.56;4928714;28;20470;-93
2023/10/10 00:57:03;;;;;;;;;;;;;;;14.58;100.00;101957.94;4936385;28;19926;-93
2023/10/10 00:59:54;;;;;;;;;;;;;;;14.56;100.00;101958.94;4926406;28;20120;-93
2023/10/10 01:02:42;;;;;;;;;;;;;;;14.50;100.00;101960.94;4934386;28;19938;-93
2023/10/10 01:05:39;;;;;;;;;;;;;;;14.46;100.00;101954.03;4946071;28;19957;-93
2023/10/10 01:08:30;;;;;;;;;;;;;;;14.42;100.00;101946.25;4934343;28;20090;-94
2023/10/10 01:11:16;;;;;;;;;;;;;;;14.38;100.00;101951.69;4939980;28;19930;-93
2023/10/10 01:14:03;;;;;;;;;;;;;;;14.36;100.00;101950.03;4939984;28;19939;-92
2023/10/10 01:16:54;;;;;;;;;;;;;;;14.35;100.00;101945.63;4936766;28;19934;-93
2023/10/10 01:19:44;;;;;;;;;;;;;;;14.36;100.00;101939.38;4949606;28;19977;-92
2023/10/10 01:22:37;;;;;;;;;;;;;;;14.34;100.00;101947.44;4932531;28;19930;-92
2023/10/10 01:31:10;;;;;;;;;;;;;;;14.36;100.00;101937.59;4946336;28;20032;-89
2023/10/10 01:34:00;;;;;;;;;;;;;;;14.38;100.00;101941.03;4947637;28;20020;-91
2023/10/10 01:36:50;;;;;;;;;;;;;;;14.39;100.00;101931.25;4934894;28;20378;-89
2023/10/10 01:39:55;;;;;;;;;;;;;;;14.39;100.00;101925.94;4937350;28;19938;-92
2023/10/10 01:42:59;;;;;;;;;;;;;;;14.39;100.00;101923.28;4955250;28;19922;-91
2023/10/10 01:45:48;;;;;;;;;;;;;;;14.38;100.00;101906.41;4930723;28;19984;-92
2023/10/10 01:48:43;;;;;;;;;;;;;;;14.38;100.00;101916.19;4942049;28;19932;-91
2023/10/10 01:51:42;;;;;;;;;;;;;;;14.38;100.00;101906.41;4941096;28;19932;-91
2023/10/10 01:54:45;;;;;;;;;;;;;;;14.37;100.00;101899.34;4942557;28;20045;-92
2023/10/10 01:57:31;;;;;;;;;;;;;;;14.37;100.00;101903.81;4941058;28;19972;-91
2023/10/10 02:00:25;;;;;;;;;;;;;;;14.37;100.00;101906.47;4933894;28;19937;-91
2023/10/10 02:03:11;;;;;;;;;;;;;;;14.36;100.00;101902.97;4936486;28;19941;-90
2023/10/10 02:05:59;;;;;;;;;;;;;;;14.36;100.00;101896.75;4941630;28;20088;-90
2023/10/10 02:08:45;;;;;;;;;;;;;;;14.34;100.00;101898.63;4936393;28;19927;-91
2023/10/10 02:11:31;;;;;;;;;;;;;;;14.32;100.00;101898.69;4963060;28;20693;-90
2023/10/10 02:14:18;;;;;;;;;;;;;;;14.33;100.00;101902.22;4939753;28;20555;-89
2023/10/10 02:17:09;;;;;;;;;;;;;;;14.31;100.00;101898.75;4936650;28;19939;-90
2023/10/10 02:25:49;;;;;;;;;;;;;;;14.31;100.00;101888.09;4952904;28;19926;-93
2023/10/10 02:28:47;;;;;;;;;;;;;;;14.31;100.00;101888.09;4938822;28;20026;-91
2023/10/10 02:31:33;;;;;;;;;;;;;;;14.29;100.00;101888.19;4940339;28;19929;-88
2023/10/10 02:34:19;;;;;;;;;;;;;;;14.29;100.00;101889.97;4942475;28;19933;-90
2023/10/10 02:40:15;;;;;;;;;;;;;;;14.32;100.00;101898.69;4945721;28;19933;-89
2023/10/10 02:46:05;;;;;;;;;;;;;;;14.35;100.00;101895.03;4943998;28;19927;-92
2023/10/10 02:48:55;;;;;;;;;;;;;;;14.35;100.00;101893.25;4933839;28;19932;-89
2023/10/10 02:51:48;;;;;;;;;;;;;;;14.36;100.00;101886.97;4941569;28;20417;-90
2023/10/10 02:54:34;;;;;;;;;;;;;;;14.37;100.00;101891.38;4931299;28;20025;-89
2023/10/10 03:03:18;;;;;;;;;;;;;;;14.40;100.00;101896.53;4945197;28;19926;-88
2023/10/10 03:06:06;;;;;;;;;;;;;;;14.42;100.00;101899.16;4929959;28;19930;-90
2023/10/10 03:08:55;;;;;;;;;;;;;;;14.40;100.00;101899.22;4935882;28;19957;-90
2023/10/10 03:12:04;;;;;;;;;;;;;;;14.40;100.00;101898.34;4960195;28;19941;-90
2023/10/10 03:14:53;;;;;;;;;;;;;;;14.44;100.00;101913.25;4955276;28;19954;-89
2023/10/10 03:23:55;;;;;;;;;;;;;;;14.48;100.00;101895.31;4955997;28;19942;-90
2023/10/10 03:29:37;;;;;;;;;;;;;;;14.49;100.00;101889.94;4941115;28;20408;-87
2023/10/10 03:32:33;;;;;;;;;;;;;;;14.50;100.00;101891.66;4928323;28;19930;-88
2023/10/10 03:35:34;;;;;;;;;;;;;;;14.51;100.00;101880.06;4934215;28;19930;-88
2023/10/10 05:26:02;;;;;;;;;;;;;;;14.11;100.00;101765.56;4898020;29;19976;-88
2023/10/10 05:28:48;;;;;;;;;;;;;;;14.10;100.00;101771.84;4939500;28;20010;-92
2023/10/10 05:31:35;;;;;;;;;;;;;;;14.09;100.00;101758.59;4922071;28;20040;-89
2023/10/10 05:34:23;;;;;;;;;;;;;;;14.06;100.00;101756.91;4934791;28;19989;-87
2023/10/10 05:37:09;;;;;;;;;;;;;;;14.05;100.00;101757.00;4929587;28;19961;-91
2023/10/10 05:39:56;;;;;;;;;;;;;;;14.04;100.00;101757.91;4936564;28;19934;-89
2023/10/10 05:42:41;;;;;;;;;;;;;;;14.02;100.00;101758.00;4925431;28;19996;-89
2023/10/10 05:45:29;;;;;;;;;;;;;;;14.01;100.00;101742.09;4941586;28;19989;-90
2023/10/10 05:48:14;;;;;;;;;;;;;;;13.99;100.00;101739.50;4937484;28;20480;-89
2023/10/10 05:51:00;;;;;;;;;;;;;;;13.99;100.00;101742.16;4934696;28;20017;-90
2023/10/10 05:53:46;;;;;;;;;;;;;;;13.98;100.00;101736.00;4924630;28;19972;-90
2023/10/10 05:56:34;;;;;;;;;;;;;;;13.99;100.00;101752.81;4938305;28;19930;-89
2023/10/10 05:59:23;;;;;;;;;;;;;;;13.99;100.00;101739.50;4926581;28;19930;-90
2023/10/10 06:02:11;;;;;;;;;;;;;;;14.00;100.00;101746.56;4926991;28;19952;-90
2023/10/10 06:04:57;;;;;;;;;;;;;;;13.99;100.00;101737.72;4922955;28;19941;-91
2023/10/10 06:07:43;;;;;;;;;;;;;;;14.01;100.00;101728.78;4940916;28;19930;-93
2023/10/10 06:10:32;;;;;;;;;;;;;;;14.01;100.00;101728.78;4935939;28;19957;-91
2023/10/10 06:13:19;;;;;;;;;;;;;;;14.02;100.00;101725.19;4927430;28;20056;-90
2023/10/10 06:16:17;;;;;;;;;;;;;;;14.03;100.00;101716.25;4927809;28;19962;-91
2023/10/10 06:19:03;;;;;;;;;;;;;;;14.05;100.00;101715.25;4938648;28;20016;-89
2023/10/10 06:21:51;;;;;;;;;;;;;;;14.09;100.00;101726.63;4944066;28;20389;-91
2023/10/10 06:24:39;;;;;;;;;;;;;;;14.09;100.00;101727.50;4926449;28;19935;-89
2023/10/10 06:27:28;;;;;;;;;;;;;;;14.12;100.00;101722.03;4929488;28;19930;-90
2023/10/10 06:30:17;;;;;;;;;;;;;;;14.15;100.00;101725.50;4931712;28;19935;-92
2023/10/10 06:33:15;;;;;;;;;;;;;;;14.16;100.00;101730.75;4939920;28;21169;-90
2023/10/10 06:36:07;;;;;;;;;;;;;;;14.19;100.00;101749.25;4931686;28;19970;-90
2023/10/10 06:41:51;;;;;;;;;;;;;;;14.22;100.00;101759.75;4938922;28;19946;-87
2023/10/10 06:44:39;;;;;;;;;;;;;;;14.23;100.00;101756.16;4940999;28;19993;-87
2023/10/10 06:47:32;;;;;;;;;;;;;;;14.25;100.00;101754.28;4936790;28;19965;-88
2023/10/10 06:50:24;;;;;;;;;;;;;;;14.25;100.00;101748.97;4933736;28;19931;-87
2023/10/10 06:53:26;;;;;;;;;;;;;;;14.26;100.00;101740.03;4929289;28;19926;-88
2023/10/10 06:56:34;;;;;;;;;;;;;;;14.28;100.00;101736.44;4936178;28;19933;-90
2023/10/10 06:59:27;;;;;;;;;;;;;;;14.33;100.00;101755.72;4941522;28;19957;-87
2023/10/10 07:02:19;;;;;;;;;;;;;;;14.34;100.00;101746.81;4953283;28;20346;-82
2023/10/10 07:05:05;;;;;;;;;;;;;;;14.39;100.00;101744.78;4954122;28;19934;-86
2023/10/10 07:08:12;;;;;;;;;;;;;;;14.44;100.00;101742.75;4952515;28;21498;-91
2023/10/10 07:10:57;;;;;;;;;;;;;;;14.49;100.00;101739.91;4928084;28;19926;-89
2023/10/10 07:13:44;;;;;;;;;;;;;;;14.55;100.00;101744.06;4940407;28;20029;-92
2023/10/10 07:16:32;;;;;;;;;;;;;;;14.60;100.00;101747.38;4939829;28;19934;-90
2023/10/10 07:19:30;;;;;;;;;;;;;;;14.65;100.00;101747.97;4953550;28;19933;-91
2023/10/10 07:22:21;;;;;;;;;;;;;;;14.70;100.00;101743.31;4934920;28;20402;-90
2023/10/10 07:25:07;;;;;;;;;;;;;;;14.76;100.00;101743.03;4933913;28;19993;-89
2023/10/10 07:27:53;;;;;;;;;;;;;;;14.85;100.00;101743.50;4929611;28;19926;-90
2023/10/10 07:30:43;;;;;;;;;;;;;;;14.92;100.00;101742.28;4940172;28;19934;-90
2023/10/10 07:33:40;;;;;;;;;;;;;;;14.99;100.00;101738.34;4927110;28;20412;-91
2023/10/10 07:36:27;;;;;;;;;;;;;;;15.05;100.00;101738.06;4929784;28;20154;-91
2023/10/10 07:42:27;;;;;;;;;;;;;;;15.19;100.00;101736.50;4946288;28;20052;-90
2023/10/10 07:45:15;;;;;;;;;;;;;;;15.24;100.00;101752.28;4939569;28;19926;-91
2023/10/10 07:50:47;;;;;;;;;;;;;;;15.31;100.00;101743.88;4936977;28;19966;-90
2023/10/10 07:53:43;;;;;;;;;;;;;;;15.35;100.00;101744.59;4934161;28;19930;-89
2023/10/10 07:56:31;;;;;;;;;;;;;;;15.38;100.00;101739.09;4944987;28;19937;-91
2023/10/10 07:59:17;;;;;;;;;;;;;;;15.42;100.00;101737.13;4939171;28;19934;-90
2023/10/10 08:02:24;;;;;;;;;;;;;;;15.44;100.00;101727.25;4938131;28;20243;-89
2023/10/10 08:05:11;;;;;;;;;;;;;;;15.48;100.00;101723.47;4933207;28;20110;-90
2023/10/10 08:07:56;;;;;;;;;;;;;;;15.52;100.00;101722.34;4938867;28;19930;-89
2023/10/10 08:10:45;;;;;;;;;;;;;;;15.54;100.00;101714.28;4935751;28;19946;-90
2023/10/10 08:13:32;;;;;;;;;;;;;;;15.54;100.00;101712.50;4938090;28;19923;-89
2023/10/10 08:16:21;;;;;;;;;;;;;;;15.57;100.00;101712.31;4939164;28;20007;-88
2023/10/10 08:19:10;;;;;;;;;;;;;;;15.59;100.00;101704.22;4931582;28;20273;-87
2023/10/10 08:21:56;;;;;;;;;;;;;;;15.63;100.00;101710.28;4928036;28;19933;-90
2023/10/10 08:24:43;;;;;;;;;;;;;;;15.67;100.00;101703.81;4933376;28;19954;-92
2023/10/10 08:27:29;;;;;;;;;;;;;;;15.71;100.00;101703.59;4940800;28;19934;-91
2023/10/10 08:30:16;;;;;;;;;;;;;;;15.74;100.00;101703.41;4938188;28;19923;-92
2023/10/10 08:33:02;;;;;;;;;;;;;;;15.78;100.00;101701.44;4926318;28;19930;-91
2023/10/10 08:35:48;;;;;;;;;;;;;;;15.82;100.00;101696.78;4936732;28;19934;-91
2023/10/10 08:38:34;;;;;;;;;;;;;;;15.85;100.00;101686.81;4938528;28;19930;-90
2023/10/10 08:41:26;;;;;;;;;;;;;;;15.89;100.00;101693.72;4940367;28;19930;-86
2023/10/10 08:44:17;;;;;;;;;;;;;;;15.95;100.00;101697.03;4935372;28;19930;-90
2023/10/10 08:47:03;;;;;;;;;;;;;;;15.97;100.00;101693.31;4936752;28;19938;-89
2023/10/10 08:49:49;;;;;;;;;;;;;;;16.02;100.00;101695.75;4938985;28;19937;-89
2023/10/10 08:52:35;;;;;;;;;;;;;;;16.06;100.00;101702.63;4951725;28;20146;-91
2023/10/10 08:55:26;;;;;;;;;;;;;;;16.10;100.00;101698.84;4936872;28;19933;-88
2023/10/10 08:58:11;;;;;;;;;;;;;;;16.16;100.00;101697.63;4926084;28;19934;-89
2023/10/10 09:00:58;;;;;;;;;;;;;;;16.22;100.00;101696.41;4935873;28;19926;-90
2023/10/10 09:03:45;;;;;;;;;;;;;;;16.28;100.00;101704.09;4925252;28;19951;-90
2023/10/10 09:06:43;;;;;;;;;;;;;;;16.33;100.00;101698.53;4927065;28;20565;-91
2023/10/10 09:09:35;;;;;;;;;;;;;;;16.39;100.00;101701.69;4938904;28;19926;-90
2023/10/10 09:12:21;;;;;;;;;;;;;;;16.45;100.00;101696.94;4930464;28;19977;-89
2023/10/10 09:15:16;;;;;;;;;;;;;;;16.50;100.00;101703.75;4939127;28;19930;-86
2023/10/10 09:18:12;;;;;;;;;;;;;;;16.56;100.00;101699.84;4954414;28;19927;-90
2023/10/10 09:21:20;;;;;;;;;;;;;;;16.60;100.00;101696.06;4952132;28;19922;-92
2023/10/10 09:24:27;;;;;;;;;;;;;;;16.65;100.00;101688.66;4940196;28;19930;-91
2023/10/10 09:27:39;;;;;;;;;;;;;;;16.72;100.00;101691.81;4930334;28;20270;-89
2023/10/10 09:30:31;;;;;;;;;;;;;;;16.80;100.00;101699.41;4941365;28;19962;-91
2023/10/10 09:33:27;;;;;;;;;;;;;;;16.84;100.00;101700.94;4923059;28;19931;-89
2023/10/10 09:36:19;;;;;;;;;;;;;;;16.87;100.00;101697.22;4939540;28;19934;-87
2023/10/10 09:39:09;;;;;;;;;;;;;;;16.91;100.00;101696.09;4939065;28;20017;-87
2023/10/10 09:44:56;;;;;;;;;;;;;;;17.00;100.00;101687.50;4939162;28;20371;-86
2023/10/10 09:48:05;;;;;;;;;;;;;;;17.06;100.00;101678.31;4927562;28;20374;-95
2023/10/10 09:51:08;;;;;;;;;;;;;;;17.09;100.00;101676.31;4945001;28;19932;-89
2023/10/10 09:54:00;;;;;;;;;;;;;;;17.12;100.00;101687.78;4933051;28;19930;-90
2023/10/10 09:56:47;;;;;;;;;;;;;;;17.10;100.00;101686.06;4934614;28;19953;-93
2023/10/10 09:59:37;;;;;;;;;;;;;;;17.12;100.00;101677.94;4929405;28;20116;-93
2023/10/10 10:02:40;;;;;;;;;;;;;;;17.14;100.00;101673.34;4941113;28;19927;-91
2023/10/10 10:05:28;;;;;;;;;;;;;;;17.22;100.00;101665.72;4933126;28;19960;-91
2023/10/10 10:08:21;;;;;;;;;;;;;;;17.33;100.00;101673.09;4930433;28;20053;-93
2023/10/10 10:11:11;;;;;;;;;;;;;;;17.46;100.00;101689.28;4925390;28;21503;-91
2023/10/10 10:14:12;;;;;;;;;;;;;;;17.56;100.00;101673.50;4929221;28;20057;-88
2023/10/10 10:17:18;;;;;;;;;;;;;;;17.65;100.00;101680.94;4950175;28;19930;-90
2023/10/10 10:20:19;;;;;;;;;;;;;;;17.76;100.00;101685.63;4937641;28;19986;-90
2023/10/10 10:23:06;;;;;;;;;;;;;;;17.87;100.00;101686.78;4950071;28;19938;-93
2023/10/10 10:25:53;;;;;;;;;;;;;;;18.01;100.00;101694.81;4933871;28;19933;-91
2023/10/10 10:28:42;;;;;;;;;;;;;;;18.09;100.00;101693.50;4931890;28;20409;-86
2023/10/10 10:31:29;;;;;;;;;;;;;;;18.14;100.00;101691.38;4948933;28;20394;-90
2023/10/10 10:37:23;;;;;;;;;;;;;;;18.21;100.00;101695.38;4944584;28;20001;-90
2023/10/10 10:42:58;;;;;;;;;;;;;;;18.27;100.00;101689.63;4940610;28;20404;-91
2023/10/10 10:45:51;;;;;;;;;;;;;;;18.40;100.00;101688.81;4946044;28;19930;-92
2023/10/10 10:48:38;;;;;;;;;;;;;;;18.52;100.00;101692.53;4934207;28;19927;-93
2023/10/10 10:51:32;;;;;;;;;;;;;;;18.66;100.00;101688.91;4960027;28;19930;-87
2023/10/10 10:54:36;;;;;;;;;;;;;;;18.81;100.00;101685.22;4948372;28;19985;-94
2023/10/10 10:57:28;;;;;;;;;;;;;;;18.86;100.00;101695.63;4942061;28;19937;-91
2023/10/10 11:00:25;;;;;;;;;;;;;;;18.87;100.00;101684.78;4933563;28;20398;-91
2023/10/10 11:03:11;;;;;;;;;;;;;;;18.91;100.00;101689.94;4952610;28;19934;-89
2023/10/10 11:06:06;;;;;;;;;;;;;;;18.90;100.00;101697.13;4943894;28;19941;-90
2023/10/10 11:08:52;;;;;;;;;;;;;;;18.87;100.00;101684.78;4943675;28;19930;-92
2023/10/10 11:11:40;;;;;;;;;;;;;;;18.79;100.00;101679.06;4941514;28;19941;-89
2023/10/10 11:14:29;;;;;;;;;;;;;;;18.75;100.00;101682.94;4936890;28;19937;-94
2023/10/10 11:17:17;;;;;;;;;;;;;;;18.74;100.00;101694.59;4949644;28;19931;-90
2023/10/10 11:20:25;;;;;;;;;;;;;;;18.69;100.00;101688.72;4934580;28;19940;-93
2023/10/10 11:23:14;;;;;;;;;;;;;;;18.68;100.00;101687.00;4962250;28;20289;-95
2023/10/10 11:26:00;;;;;;;;;;;;;;;18.67;100.00;101687.94;4935598;28;19933;-91
2023/10/10 11:28:47;;;;;;;;;;;;;;;18.64;100.00;101675.63;4937333;28;19931;-90
2023/10/10 11:31:33;;;;;;;;;;;;;;;18.64;100.00;101685.47;4957499;28;19931;-91
2023/10/10 11:34:42;;;;;;;;;;;;;;;18.62;100.00;101672.16;4942400;28;19922;-93
2023/10/10 11:37:31;;;;;;;;;;;;;;;18.64;100.00;101664.91;4938561;28;19926;-93
2023/10/10 11:40:30;;;;;;;;;;;;;;;18.69;100.00;101669.94;4931506;28;19931;-93
2023/10/10 11:43:19;;;;;;;;;;;;;;;18.72;100.00;101669.72;4934591;28;20295;-89
2023/10/10 11:46:05;;;;;;;;;;;;;;;18.76;100.00;101668.56;4944789;28;20446;-88
2023/10/10 11:48:50;;;;;;;;;;;;;;;18.81;100.00;101661.09;4952344;28;20032;-94
2023/10/10 11:51:36;;;;;;;;;;;;;;;18.86;100.00;101653.56;4926628;28;19933;-94
2023/10/10 11:54:25;;;;;;;;;;;;;;;18.94;100.00;101654.84;4931944;28;20328;-90
2023/10/10 11:57:15;;;;;;;;;;;;;;;19.00;100.00;101654.44;4944156;28;19957;-93
2023/10/10 12:00:10;;;;;;;;;;;;;;;19.09;100.00;101648.50;4937297;28;19956;-94
2023/10/10 12:02:59;;;;;;;;;;;;;;;19.20;100.00;101655.78;4948568;28;20318;-89
2023/10/10 12:05:48;;;;;;;;;;;;;;;19.25;100.00;101642.03;4957634;28;19926;-91
2023/10/10 12:08:36;;;;;;;;;;;;;;;19.23;100.00;101635.94;4957594;28;20465;-86
2023/10/10 12:11:22;;;;;;;;;;;;;;;19.15;100.00;101633.78;4939046;28;20680;-94
2023/10/10 12:14:11;;;;;;;;;;;;;;;19.10;100.00;101628.72;4938661;28;19927;-91
2023/10/10 12:17:05;;;;;;;;;;;;;;;19.04;100.00;101623.78;4930566;28;19977;-92
2023/10/10 12:19:50;;;;;;;;;;;;;;;19.02;100.00;101627.50;4950757;28;19989;-87
2023/10/10 12:22:38;;;;;;;;;;;;;;;18.98;100.00;101624.19;4946334;28;19980;-91
2023/10/10 12:25:23;;;;;;;;;;;;;;;18.96;100.00;101626.13;4944911;28;19974;-87
2023/10/10 12:28:10;;;;;;;;;;;;;;;18.95;100.00;101619.03;4933683;28;19930;-92
2023/10/10 12:30:56;;;;;;;;;;;;;;;18.94;100.00;101612.81;4933549;28;20020;-93
2023/10/10 12:33:45;;;;;;;;;;;;;;;18.95;100.00;101606.47;4937142;28;20503;-92
2023/10/10 12:36:34;;;;;;;;;;;;;;;18.98;100.00;101610.75;4934101;28;19982;-92
2023/10/10 12:39:20;;;;;;;;;;;;;;;19.03;100.00;101614.03;4945550;28;20465;-92
2023/10/10 12:42:07;;;;;;;;;;;;;;;19.02;100.00;101615.00;4937097;28;19930;-93
2023/10/10 12:44:53;;;;;;;;;;;;;;;19.00;100.00;101617.75;4933510;28;19997;-89
2023/10/10 12:47:41;;;;;;;;;;;;;;;18.99;100.00;101604.44;4933383;28;19934;-91
2023/10/10 12:50:28;;;;;;;;;;;;;;;18.99;100.00;101599.94;4933932;28;19953;-93
2023/10/10 12:53:19;;;;;;;;;;;;;;;19.00;100.00;101601.66;4931871;28;19937;-91
2023/10/10 12:56:05;;;;;;;;;;;;;;;19.01;100.00;101594.44;4929753;28;19926;-92
2023/10/10 12:59:00;;;;;;;;;;;;;;;18.99;100.00;101583.84;4933787;28;19930;-91
2023/10/10 13:01:46;;;;;;;;;;;;;;;19.00;100.00;101585.56;4933927;28;19922;-92
2023/10/10 13:04:37;;;;;;;;;;;;;;;19.08;100.00;101585.06;4940927;28;19929;-90
2023/10/10 13:07:24;;;;;;;;;;;;;;;19.19;100.00;101586.13;4927454;28;20028;-91
2023/10/10 13:10:13;;;;;;;;;;;;;;;19.23;100.00;101587.63;4932748;28;19938;-91
2023/10/10 13:12:58;;;;;;;;;;;;;;;19.26;100.00;101585.56;4939954;28;20565;-93
2023/10/10 13:15:49;;;;;;;;;;;;;;;19.28;100.00;101572.03;4927925;28;20527;-91
2023/10/10 13:18:35;;;;;;;;;;;;;;;19.31;100.00;101579.88;4926374;28;20363;-89
2023/10/10 13:21:21;;;;;;;;;;;;;;;19.34;100.00;101576.97;4938947;28;20009;-89
2023/10/10 13:24:25;;;;;;;;;;;;;;;19.33;100.00;101572.56;4935216;28;19981;-93
2023/10/10 13:27:11;;;;;;;;;;;;;;;19.31;100.00;101560.22;4943314;28;19945;-92
2023/10/10 13:29:56;;;;;;;;;;;;;;;19.30;100.00;101569.25;4930344;28;20544;-90
2023/10/10 13:32:42;;;;;;;;;;;;;;;19.31;100.00;101571.81;4939979;28;20869;-94
2023/10/10 13:35:28;;;;;;;;;;;;;;;19.32;100.00;101565.47;4956306;28;20446;-91
2023/10/10 13:38:14;;;;;;;;;;;;;;;19.31;100.00;101566.47;4942007;28;19950;-92
2023/10/10 13:41:02;;;;;;;;;;;;;;;19.34;100.00;101550.13;4923416;28;19958;-90
2023/10/10 13:43:51;;;;;;;;;;;;;;;19.32;100.00;101554.75;4930464;28;19934;-92
2023/10/10 13:46:37;;;;;;;;;;;;;;;19.30;100.00;101545.97;4927138;28;20008;-88
2023/10/10 13:49:23;;;;;;;;;;;;;;;19.25;100.00;101550.78;4942633;28;19934;-92
2023/10/10 13:52:10;;;;;;;;;;;;;;;19.24;100.00;101549.06;4935823;28;20398;-90
2023/10/10 13:54:55;;;;;;;;;;;;;;;19.21;100.00;101544.78;4926338;28;20448;-89
2023/10/10 13:57:42;;;;;;;;;;;;;;;19.20;100.00;101547.56;4951313;28;20353;-88
2023/10/10 14:00:33;;;;;;;;;;;;;;;19.18;100.00;101550.34;4951580;28;19934;-89
2023/10/10 14:03:28;;;;;;;;;;;;;;;19.17;100.00;101542.44;4933447;28;19998;-89
2023/10/10 14:06:34;;;;;;;;;;;;;;;19.18;100.00;101534.25;4931642;28;20401;-89
2023/10/10 14:09:26;;;;;;;;;;;;;;;19.18;100.00;101533.41;4954930;28;20345;-89
2023/10/10 14:12:20;;;;;;;;;;;;;;;19.17;100.00;101531.69;4929484;28;19930;-90
2023/10/10 14:15:06;;;;;;;;;;;;;;;19.17;100.00;101520.97;4926418;28;19965;-83
2023/10/10 14:17:53;;;;;;;;;;;;;;;19.17;100.00;101523.66;4957574;28;19926;-92
2023/10/10 14:20:38;;;;;;;;;;;;;;;19.16;100.00;101517.41;4943479;28;19930;-90
2023/10/10 14:23:25;;;;;;;;;;;;;;;19.15;100.00;101504.97;4940424;28;19944;-89
2023/10/10 14:26:13;;;;;;;;;;;;;;;19.16;100.00;101509.34;4933297;28;19942;-91
2023/10/10 14:29:04;;;;;;;;;;;;;;;19.12;100.00;101499.81;4925050;28;19934;-90
2023/10/10 14:31:58;;;;;;;;;;;;;;;19.09;100.00;101510.75;4930756;28;20494;-85
2023/10/10 14:34:46;;;;;;;;;;;;;;;19.02;100.00;101518.41;4949670;28;20008;-82
2023/10/10 14:37:32;;;;;;;;;;;;;;;18.98;100.00;101519.53;4937281;28;19930;-88
2023/10/10 14:40:17;;;;;;;;;;;;;;;18.92;100.00;101511.94;4931138;28;19930;-91
2023/10/10 14:43:06;;;;;;;;;;;;;;;18.88;100.00;101513.97;4958720;28;19980;-91
2023/10/10 14:45:52;;;;;;;;;;;;;;;18.84;100.00;101516.00;4949277;28;19945;-89
2023/10/10 14:48:38;;;;;;;;;;;;;;;18.80;100.00;101509.13;4927335;28;19930;-87
2023/10/10 14:51:26;;;;;;;;;;;;;;;18.78;100.00;101504.88;4948587;28;20297;-88
2023/10/10 14:54:11;;;;;;;;;;;;;;;18.77;100.00;101514.72;4933755;28;19941;-93
2023/10/10 14:56:57;;;;;;;;;;;;;;;18.73;100.00;101498.00;4933673;28;19931;-90
2023/10/10 14:59:43;;;;;;;;;;;;;;;18.71;100.00;101499.06;4944133;28;20413;-89
2023/10/10 15:02:29;;;;;;;;;;;;;;;18.68;100.00;101493.94;4926853;28;19934;-94
2023/10/10 15:05:17;;;;;;;;;;;;;;;18.64;100.00;101485.25;4934343;28;19973;-89
2023/10/10 15:08:04;;;;;;;;;;;;;;;18.63;100.00;101483.50;4949540;28;20403;-94
2023/10/10 15:10:51;;;;;;;;;;;;;;;18.61;100.00;101481.91;4947026;28;19922;-96
2023/10/10 15:13:40;;;;;;;;;;;;;;;18.58;100.00;101478.47;4935191;28;20066;-94
2023/10/10 15:16:34;;;;;;;;;;;;;;;18.56;100.00;101480.41;4949790;28;19965;-95
2023/10/10 15:19:20;;;;;;;;;;;;;;;18.54;100.00;101468.94;4930960;28;19933;-92
2023/10/10 15:22:07;;;;;;;;;;;;;;;18.55;100.00;101469.78;4929750;28;19974;-88
2023/10/10 15:24:55;;;;;;;;;;;;;;;18.54;100.00;101466.25;4923627;28;19926;-88
2023/10/10 15:27:41;;;;;;;;;;;;;;;18.53;100.00;101450.25;4939408;28;20293;-93
2023/10/10 15:30:27;;;;;;;;;;;;;;;18.52;100.00;101453.91;4936296;28;19930;-90
2023/10/10 15:33:17;;;;;;;;;;;;;;;18.50;100.00;101450.47;4935837;28;20263;-92
2023/10/10 15:36:06;;;;;;;;;;;;;;;18.49;100.00;101452.31;4934818;28;19949;-91
2023/10/10 15:38:51;;;;;;;;;;;;;;;18.46;100.00;101449.81;4936240;28;20305;-91
2023/10/10 15:41:42;;;;;;;;;;;;;;;18.44;100.00;101449.06;4947742;28;20747;-89
2023/10/10 15:44:28;;;;;;;;;;;;;;;18.42;100.00;101446.50;4937405;28;19957;-89
2023/10/10 15:47:14;;;;;;;;;;;;;;;18.42;100.00;101441.13;4937328;28;19938;-89
2023/10/10 15:50:00;;;;;;;;;;;;;;;18.42;100.00;101445.66;4924764;28;19930;-91
2023/10/10 15:52:48;;;;;;;;;;;;;;;18.39;100.00;101446.72;4940502;28;19938;-93
2023/10/10 15:55:34;;;;;;;;;;;;;;;18.38;100.00;101441.47;4934936;28;19938;-85
2023/10/10 15:58:23;;;;;;;;;;;;;;;18.36;100.00;101441.56;4951474;28;19977;-85
2023/10/10 16:01:21;;;;;;;;;;;;;;;18.35;100.00;101434.47;4937331;28;19997;-85
2023/10/10 16:04:12;;;;;;;;;;;;;;;18.31;100.00;101428.47;4950511;28;19926;-85
2023/10/10 16:06:58;;;;;;;;;;;;;;;18.29;100.00;101434.91;4949192;28;19962;-85
2023/10/10 16:09:43;;;;;;;;;;;;;;;18.27;100.00;101431.47;4950162;28;19933;-86
2023/10/10 16:12:29;;;;;;;;;;;;;;;18.24;100.00;101429.88;4935322;28;20413;-84
2023/10/10 16:15:18;;;;;;;;;;;;;;;18.21;100.00;101432.78;4948146;28;20370;-86
2023/10/10 16:18:04;;;;;;;;;;;;;;;18.16;100.00;101427.75;4950963;28;20061;-84
2023/10/10 16:20:50;;;;;;;;;;;;;;;18.14;100.00;101426.13;4921104;28;19926;-86
2023/10/10 16:23:37;;;;;;;;;;;;;;;18.11;100.00;101426.31;4935269;28;19969;-85
2023/10/10 16:26:23;;;;;;;;;;;;;;;18.07;100.00;101419.47;4951285;28;19934;-86
2023/10/10 16:29:08;;;;;;;;;;;;;;;18.02;100.00;101419.72;4937963;28;19937;-85
2023/10/10 16:31:54;;;;;;;;;;;;;;;17.97;100.00;101412.00;4962026;28;20382;-92
2023/10/10 16:34:42;;;;;;;;;;;;;;;17.92;100.00;101419.50;4930738;28;20034;-93
2023/10/10 16:37:28;;;;;;;;;;;;;;;17.87;100.00;101411.78;4939702;28;19930;-92
2023/10/10 16:40:17;;;;;;;;;;;;;;;17.84;100.00;101416.47;4950169;28;19933;-91
2023/10/10 16:43:02;;;;;;;;;;;;;;;17.78;100.00;101415.91;4942663;28;20002;-93
2023/10/10 16:45:49;;;;;;;;;;;;;;;17.73;100.00;101417.19;4945298;28;19941;-93
2023/10/10 16:48:38;;;;;;;;;;;;;;;17.69;100.00;101410.34;4944829;28;20348;-92
2023/10/10 16:51:27;;;;;;;;;;;;;;;17.64;100.00;101408.81;4929020;28;19965;-89
2023/10/10 16:54:12;;;;;;;;;;;;;;;17.59;100.00;101404.75;4934405;28;19930;-89
2023/10/10 16:56:58;;;;;;;;;;;;;;;17.56;100.00;101394.22;4934285;28;20025;-91
2023/10/10 16:59:45;;;;;;;;;;;;;;;17.49;100.00;101391.97;4930406;28;19945;-91